Pagrindinis puslapis
METAR-TAF:

METAR-TAF

Oro uostai :

Sukhothai, Tailandas

platuma: 17-14-16N, ilguma: 099-49-05E, Aukštis: 55 m

Dabartinis oras

Ataskaita buvo paskelbta 9 valandos ir 54 minutes, ne 10:00 UTC
Vėjas 1 kt nuo kintamojo kryptimis
Temperatūra 32°C
Drėgmė 71%
Slėgis 1005 hPa
Matomumas 10 km arba daugiau
Mažai debesys ne aukštis 2500 ft

METAR: VTPO 221000Z VRB01KT 9999 FEW025 32/26 Q1005 NOSIG

Laikas: 02:54 (19:54 UTC)

Prognozė

Ataskaita buvo paskelbta 2 valandos ir 54 minutes, ne 17:00 UTC
Prognozė galioja nuo 22 metu 18 UTC su 23 metu 18 UTC
Vėjas 5 kt iš Pietvakarių
Matomumas 10 km arba daugiau
Išsisklaidę debesys ne aukštis 2500 ft
Laikinai
nuo 23 metu 08 UTC su 23 metu 12 UTC
Vėjas 15 kt iš Vakarų/Pietvakarių
Matomumas: 4000 m
Mažai debesys ne aukštis 1800 ft, Liūtiniai kamuoliniai debesys.
Su prošvaistėmis ne aukštis 2500 ft
perkūnija, lietus

TAF: VTPO 221700Z 2218/2318 22005KT 9999 SCT025 TEMPO 2308/2312 24015KT 4000 TSRA FEW018CB BKN025

Orai ataskaitas ir orų prognozės (METAR, TAF).

turimą stotys yra geltonos ir raudonos taškus žemėlapyje.

Perkelti pele per norėdami pamatyti stoties vardą.

Tada spustelėkite, norėdami matyti oro stebėjimo ir prognozės.

Norėdami pakeisti žemėlapį: spustelėkite ant žalios mygtukų su juodo kryžiaus žemyn,; žalią mygtuką su brūkšneliu, jei norite nutolinti; arba žalių rodyklių gretimoms žemėlapius.


METAR-TAF: